Karina — V2HS7 — position and weather

sailwx.info

Track history (hours):
 
Tides and Currents Weather Stations Pressure Air Temp Water Temp Dewpoint Dewpoint Depression Visibility Wind Speed Wind Dir Waves Ship Positions

Karina

Last reported at 2018-Feb-16 13:33 UTC. Time now 2018-Feb-17 20:19 UTC.
Position N 36°51' E 001°51'.

Length 103 m; draft 5.1 m.

Type: Cargo ship. MMSI: 304047000.

Date/timePositionNaut miles runAvg speedWind from/ knotsBaromVisibWave heightAir tempDewpointWater temp
2018-Feb-16 13:33N 36°51' E 001°51'312.4
2018-Feb-16 13:18N 36°51' E 001°47'11411.1
2018-Feb-16 03:02N 36°34' W 000°34'410.1
2018-Feb-16 02:39N 36°33' W 000°38'110.2
2018-Feb-16 02:30N 36°33' W 000°40'22211.1
2018-Feb-15 06:26N 36°00' W 005°13'512.7
2018-Feb-15 06:00N 35°59' W 005°20'714.4
2018-Feb-15 05:31N 35°57' W 005°28'263 9.5
2018-Feb-14 01:48N 38°25' W 010°01'310.7
2018-Feb-14 01:29N 38°28' W 010°01'1010.7
2018-Feb-14 00:32N 38°38' W 010°04'310.6
2018-Feb-14 00:17N 38°41' W 010°05'310.7
2018-Feb-13 23:58N 38°44' W 010°06'610.4
2018-Feb-13 23:23N 38°50' W 010°06'410.2
2018-Feb-13 23:00N 38°54' W 010°06'510.0
2018-Feb-13 22:30N 38°59' W 010°04'510.2
2018-Feb-13 22:00N 39°03' W 010°01'510.0
2018-Feb-13 21:30N 39°08' W 009°58'510.0
2018-Feb-13 21:00N 39°12' W 009°56'810.2
2018-Feb-13 20:12N 39°20' W 009°51'  
2018-Feb-10 01:01N 39°23' W 009°45'3 7.1
2018-Feb-10 00:36N 39°20' W 009°46'1 6.8
2018-Feb-10 00:30N 39°20' W 009°46'4 7.1
2018-Feb-10 00:01N 39°16' W 009°47'4 7.1
2018-Feb-09 23:30N 39°13' W 009°47'4 7.4
2018-Feb-09 23:01N 39°09' W 009°48'2 7.2
2018-Feb-09 22:45N 39°07' W 009°49'2 7.1
2018-Feb-09 22:31N 39°06' W 009°49'4 7.1
2018-Feb-09 22:01N 39°02' W 009°50'22 7.2
2018-Feb-09 19:01N 38°40' W 009°50'  
Track history (hours):
 
Tides and Currents Weather Stations Pressure Air Temp Water Temp Dewpoint Dewpoint Depression Visibility Wind Speed Wind Dir Waves Ship Positions

Karina

Last reported at 2018-Feb-16 13:33 UTC. Time now 2018-Feb-17 20:19 UTC.
Position N 36°51' E 001°51'.

Length 103 m; draft 5.1 m.

Type: Cargo ship. MMSI: 304047000.

Date/timePositionNaut miles runAvg speedWind from/ knotsBaromVisibWave heightAir tempDewpointWater temp
2018-Feb-16 13:33N 36°51' E 001°51'312.4
2018-Feb-16 13:18N 36°51' E 001°47'11411.1
2018-Feb-16 03:02N 36°34' W 000°34'410.1
2018-Feb-16 02:39N 36°33' W 000°38'110.2
2018-Feb-16 02:30N 36°33' W 000°40'22211.1
2018-Feb-15 06:26N 36°00' W 005°13'512.7
2018-Feb-15 06:00N 35°59' W 005°20'714.4
2018-Feb-15 05:31N 35°57' W 005°28'263 9.5
2018-Feb-14 01:48N 38°25' W 010°01'310.7
2018-Feb-14 01:29N 38°28' W 010°01'1010.7
2018-Feb-14 00:32N 38°38' W 010°04'310.6
2018-Feb-14 00:17N 38°41' W 010°05'310.7
2018-Feb-13 23:58N 38°44' W 010°06'610.4
2018-Feb-13 23:23N 38°50' W 010°06'410.2
2018-Feb-13 23:00N 38°54' W 010°06'510.0
2018-Feb-13 22:30N 38°59' W 010°04'510.2
2018-Feb-13 22:00N 39°03' W 010°01'510.0
2018-Feb-13 21:30N 39°08' W 009°58'510.0
2018-Feb-13 21:00N 39°12' W 009°56'810.2
2018-Feb-13 20:12N 39°20' W 009°51'  
2018-Feb-10 01:01N 39°23' W 009°45'3 7.1
2018-Feb-10 00:36N 39°20' W 009°46'1 6.8
2018-Feb-10 00:30N 39°20' W 009°46'4 7.1
2018-Feb-10 00:01N 39°16' W 009°47'4 7.1
2018-Feb-09 23:30N 39°13' W 009°47'4 7.4
2018-Feb-09 23:01N 39°09' W 009°48'2 7.2
2018-Feb-09 22:45N 39°07' W 009°49'2 7.1
2018-Feb-09 22:31N 39°06' W 009°49'4 7.1
2018-Feb-09 22:01N 39°02' W 009°50'22 7.2
2018-Feb-09 19:01N 38°40' W 009°50'  

Dump ship's entire track history